sensor_id;sensor_type;location;lat;lon;timestamp;P1;durP1;ratioP1;P2;durP2;ratioP2
5690;SDS011;2870;42.680;23.364;2023-03-01T00:00:53;7.00;;;5.53;;
5690;SDS011;2870;42.680;23.364;2023-03-01T00:03:21;5.70;;;5.10;;
5690;SDS011;2870;42.680;23.364;2023-03-01T00:05:47;6.50;;;5.33;;
5690;SDS011;2870;42.680;23.364;2023-03-01T00:08:14;8.23;;;5.50;;
5690;SDS011;2870;42.680;23.364;2023-03-01T00:10:41;6.57;;;5.40;;
5690;SDS011;2870;42.680;23.364;2023-03-01T00:13:08;5.10;;;4.50;;
5690;SDS011;2870;42.680;23.364;2023-03-01T00:15:37;5.90;;;4.77;;
5690;SDS011;2870;42.680;23.364;2023-03-01T00:18:05;6.10;;;5.50;;
5690;SDS011;2870;42.680;23.364;2023-03-01T00:20:34;7.90;;;5.43;;
5690;SDS011;2870;42.680;23.364;2023-03-01T00:23:01;5.80;;;4.80;;
5690;SDS011;2870;42.680;23.364;2023-03-01T00:25:27;9.27;;;7.27;;
5690;SDS011;2870;42.680;23.364;2023-03-01T00:27:54;7.10;;;6.03;;
5690;SDS011;2870;42.680;23.364;2023-03-01T00:30:21;6.10;;;5.27;;
5690;SDS011;2870;42.680;23.364;2023-03-01T00:32:48;6.13;;;5.10;;
5690;SDS011;2870;42.680;23.364;2023-03-01T00:35:15;9.03;;;5.93;;
5690;SDS011;2870;42.680;23.364;2023-03-01T00:37:43;7.60;;;6.37;;
5690;SDS011;2870;42.680;23.364;2023-03-01T00:40:10;7.73;;;6.53;;
5690;SDS011;2870;42.680;23.364;2023-03-01T00:42:37;9.80;;;6.23;;
5690;SDS011;2870;42.680;23.364;2023-03-01T00:45:05;8.17;;;6.07;;
5690;SDS011;2870;42.680;23.364;2023-03-01T00:47:33;7.13;;;6.03;;
5690;SDS011;2870;42.680;23.364;2023-03-01T00:49:59;6.90;;;5.50;;
5690;SDS011;2870;42.680;23.364;2023-03-01T00:52:26;10.10;;;6.10;;
5690;SDS011;2870;42.680;23.364;2023-03-01T00:54:54;6.43;;;5.63;;
5690;SDS011;2870;42.680;23.364;2023-03-01T00:57:22;7.20;;;5.83;;
5690;SDS011;2870;42.680;23.364;2023-03-01T00:59:49;6.63;;;5.90;;
5690;SDS011;2870;42.680;23.364;2023-03-01T01:02:17;6.77;;;6.07;;
5690;SDS011;2870;42.680;23.364;2023-03-01T01:04:44;7.47;;;6.10;;
5690;SDS011;2870;42.680;23.364;2023-03-01T01:07:11;7.83;;;6.30;;
5690;SDS011;2870;42.680;23.364;2023-03-01T01:09:39;6.70;;;5.10;;
5690;SDS011;2870;42.680;23.364;2023-03-01T01:12:07;8.13;;;5.40;;
5690;SDS011;2870;42.680;23.364;2023-03-01T01:14:34;7.07;;;5.73;;
5690;SDS011;2870;42.680;23.364;2023-03-01T01:17:02;6.17;;;4.77;;
5690;SDS011;2870;42.680;23.364;2023-03-01T01:19:29;6.13;;;5.53;;
5690;SDS011;2870;42.680;23.364;2023-03-01T01:21:56;7.03;;;5.87;;
5690;SDS011;2870;42.680;23.364;2023-03-01T01:24:22;7.10;;;5.77;;
5690;SDS011;2870;42.680;23.364;2023-03-01T01:26:49;8.13;;;5.80;;
5690;SDS011;2870;42.680;23.364;2023-03-01T01:29:18;9.50;;;5.07;;
5690;SDS011;2870;42.680;23.364;2023-03-01T01:31:45;6.80;;;5.53;;
5690;SDS011;2870;42.680;23.364;2023-03-01T01:34:13;6.33;;;5.50;;
5690;SDS011;2870;42.680;23.364;2023-03-01T01:36:41;5.93;;;4.97;;
5690;SDS011;2870;42.680;23.364;2023-03-01T01:39:08;5.43;;;4.90;;
5690;SDS011;2870;42.680;23.364;2023-03-01T01:41:38;6.10;;;4.73;;
5690;SDS011;2870;42.680;23.364;2023-03-01T01:44:14;4.67;;;4.17;;
5690;SDS011;2870;42.680;23.364;2023-03-01T01:46:46;5.57;;;5.07;;
5690;SDS011;2870;42.680;23.364;2023-03-01T01:49:25;4.67;;;4.00;;
5690;SDS011;2870;42.680;23.364;2023-03-01T01:51:57;5.37;;;4.87;;
5690;SDS011;2870;42.680;23.364;2023-03-01T01:54:30;4.60;;;4.10;;
5690;SDS011;2870;42.680;23.364;2023-03-01T01:57:03;4.73;;;4.10;;
5690;SDS011;2870;42.680;23.364;2023-03-01T01:59:34;4.57;;;4.17;;
5690;SDS011;2870;42.680;23.364;2023-03-01T02:02:03;5.63;;;5.00;;
5690;SDS011;2870;42.680;23.364;2023-03-01T02:04:31;5.30;;;4.80;;
5690;SDS011;2870;42.680;23.364;2023-03-01T02:07:01;5.40;;;4.90;;
5690;SDS011;2870;42.680;23.364;2023-03-01T02:09:31;5.20;;;4.60;;
5690;SDS011;2870;42.680;23.364;2023-03-01T02:11:59;5.00;;;4.50;;
5690;SDS011;2870;42.680;23.364;2023-03-01T02:14:27;5.30;;;4.80;;
5690;SDS011;2870;42.680;23.364;2023-03-01T02:16:53;5.50;;;5.00;;
5690;SDS011;2870;42.680;23.364;2023-03-01T02:19:26;6.20;;;5.60;;
5690;SDS011;2870;42.680;23.364;2023-03-01T02:22:07;6.10;;;5.50;;
5690;SDS011;2870;42.680;23.364;2023-03-01T02:24:45;5.90;;;5.30;;
5690;SDS011;2870;42.680;23.364;2023-03-01T02:27:19;5.70;;;5.20;;
5690;SDS011;2870;42.680;23.364;2023-03-01T02:29:54;6.00;;;5.10;;
5690;SDS011;2870;42.680;23.364;2023-03-01T02:32:20;8.50;;;5.03;;
5690;SDS011;2870;42.680;23.364;2023-03-01T02:34:50;6.10;;;5.50;;
5690;SDS011;2870;42.680;23.364;2023-03-01T02:37:18;7.50;;;4.93;;
5690;SDS011;2870;42.680;23.364;2023-03-01T02:39:50;6.47;;;5.40;;
5690;SDS011;2870;42.680;23.364;2023-03-01T02:42:26;5.60;;;4.90;;
5690;SDS011;2870;42.680;23.364;2023-03-01T02:44:56;7.20;;;6.30;;
5690;SDS011;2870;42.680;23.364;2023-03-01T02:47:23;5.53;;;5.00;;
5690;SDS011;2870;42.680;23.364;2023-03-01T02:49:50;4.87;;;4.37;;
5690;SDS011;2870;42.680;23.364;2023-03-01T02:55:12;5.20;;;4.70;;
5690;SDS011;2870;42.680;23.364;2023-03-01T02:57:41;5.27;;;4.73;;
5690;SDS011;2870;42.680;23.364;2023-03-01T03:00:13;5.63;;;5.03;;
5690;SDS011;2870;42.680;23.364;2023-03-01T03:02:44;5.20;;;4.70;;
5690;SDS011;2870;42.680;23.364;2023-03-01T03:05:13;4.43;;;4.03;;
5690;SDS011;2870;42.680;23.364;2023-03-01T03:07:41;8.30;;;4.60;;
5690;SDS011;2870;42.680;23.364;2023-03-01T03:10:11;5.27;;;4.50;;
5690;SDS011;2870;42.680;23.364;2023-03-01T03:12:39;6.13;;;5.17;;
5690;SDS011;2870;42.680;23.364;2023-03-01T03:15:07;5.47;;;4.83;;
5690;SDS011;2870;42.680;23.364;2023-03-01T03:17:39;4.80;;;4.30;;
5690;SDS011;2870;42.680;23.364;2023-03-01T03:20:09;6.83;;;5.43;;
5690;SDS011;2870;42.680;23.364;2023-03-01T03:22:38;5.53;;;4.97;;
5690;SDS011;2870;42.680;23.364;2023-03-01T03:25:06;5.97;;;4.90;;
5690;SDS011;2870;42.680;23.364;2023-03-01T03:27:38;5.40;;;4.90;;
5690;SDS011;2870;42.680;23.364;2023-03-01T03:30:06;5.27;;;4.60;;
5690;SDS011;2870;42.680;23.364;2023-03-01T03:32:34;5.07;;;4.57;;
5690;SDS011;2870;42.680;23.364;2023-03-01T03:35:03;5.57;;;5.07;;
5690;SDS011;2870;42.680;23.364;2023-03-01T03:37:34;6.80;;;5.20;;
5690;SDS011;2870;42.680;23.364;2023-03-01T03:40:19;5.73;;;5.23;;
5690;SDS011;2870;42.680;23.364;2023-03-01T03:42:46;5.70;;;5.20;;
5690;SDS011;2870;42.680;23.364;2023-03-01T03:45:13;5.23;;;4.73;;
5690;SDS011;2870;42.680;23.364;2023-03-01T03:47:40;8.10;;;5.70;;
5690;SDS011;2870;42.680;23.364;2023-03-01T03:50:10;5.60;;;5.10;;
5690;SDS011;2870;42.680;23.364;2023-03-01T03:52:38;6.17;;;4.70;;
5690;SDS011;2870;42.680;23.364;2023-03-01T03:55:05;12.00;;;5.40;;
5690;SDS011;2870;42.680;23.364;2023-03-01T03:57:36;6.57;;;5.67;;
5690;SDS011;2870;42.680;23.364;2023-03-01T04:00:03;5.60;;;5.00;;
5690;SDS011;2870;42.680;23.364;2023-03-01T04:02:37;6.50;;;5.40;;
5690;SDS011;2870;42.680;23.364;2023-03-01T04:05:05;5.50;;;5.00;;
5690;SDS011;2870;42.680;23.364;2023-03-01T04:07:34;5.30;;;4.80;;
5690;SDS011;2870;42.680;23.364;2023-03-01T04:10:01;5.17;;;4.57;;
5690;SDS011;2870;42.680;23.364;2023-03-01T04:12:28;7.17;;;5.60;;
5690;SDS011;2870;42.680;23.364;2023-03-01T04:14:55;6.47;;;5.70;;
5690;SDS011;2870;42.680;23.364;2023-03-01T04:17:23;6.40;;;4.77;;
5690;SDS011;2870;42.680;23.364;2023-03-01T04:19:49;7.20;;;5.10;;
5690;SDS011;2870;42.680;23.364;2023-03-01T04:22:16;6.10;;;5.50;;
5690;SDS011;2870;42.680;23.364;2023-03-01T04:24:45;6.03;;;5.43;;
5690;SDS011;2870;42.680;23.364;2023-03-01T04:27:11;6.20;;;5.60;;
5690;SDS011;2870;42.680;23.364;2023-03-01T04:29:38;8.27;;;6.13;;
5690;SDS011;2870;42.680;23.364;2023-03-01T04:32:05;5.43;;;4.90;;
5690;SDS011;2870;42.680;23.364;2023-03-01T04:34:32;5.10;;;4.57;;
5690;SDS011;2870;42.680;23.364;2023-03-01T04:36:58;6.70;;;5.10;;
5690;SDS011;2870;42.680;23.364;2023-03-01T04:39:25;6.70;;;5.53;;
5690;SDS011;2870;42.680;23.364;2023-03-01T04:41:53;7.53;;;5.43;;
5690;SDS011;2870;42.680;23.364;2023-03-01T04:44:20;5.30;;;4.77;;
5690;SDS011;2870;42.680;23.364;2023-03-01T04:46:48;8.50;;;6.00;;
5690;SDS011;2870;42.680;23.364;2023-03-01T04:49:15;5.73;;;5.10;;
5690;SDS011;2870;42.680;23.364;2023-03-01T04:51:42;5.77;;;5.13;;
5690;SDS011;2870;42.680;23.364;2023-03-01T04:54:09;6.50;;;5.47;;
5690;SDS011;2870;42.680;23.364;2023-03-01T04:56:35;8.40;;;5.70;;
5690;SDS011;2870;42.680;23.364;2023-03-01T04:59:04;6.60;;;5.90;;
5690;SDS011;2870;42.680;23.364;2023-03-01T05:01:33;7.20;;;6.43;;
5690;SDS011;2870;42.680;23.364;2023-03-01T05:04:00;7.37;;;5.93;;
5690;SDS011;2870;42.680;23.364;2023-03-01T05:06:30;7.23;;;6.10;;
5690;SDS011;2870;42.680;23.364;2023-03-01T05:08:57;7.10;;;5.50;;
5690;SDS011;2870;42.680;23.364;2023-03-01T05:11:24;6.60;;;5.90;;
5690;SDS011;2870;42.680;23.364;2023-03-01T05:13:53;5.70;;;5.10;;
5690;SDS011;2870;42.680;23.364;2023-03-01T05:16:21;7.83;;;6.33;;
5690;SDS011;2870;42.680;23.364;2023-03-01T05:18:48;9.83;;;6.30;;
5690;SDS011;2870;42.680;23.364;2023-03-01T05:21:16;8.53;;;6.87;;
5690;SDS011;2870;42.680;23.364;2023-03-01T05:23:43;7.10;;;6.13;;
5690;SDS011;2870;42.680;23.364;2023-03-01T05:26:10;8.30;;;6.20;;
5690;SDS011;2870;42.680;23.364;2023-03-01T05:28:38;9.17;;;6.50;;
5690;SDS011;2870;42.680;23.364;2023-03-01T05:31:05;6.53;;;5.77;;
5690;SDS011;2870;42.680;23.364;2023-03-01T05:33:36;6.93;;;5.90;;
5690;SDS011;2870;42.680;23.364;2023-03-01T05:36:03;8.30;;;6.97;;
5690;SDS011;2870;42.680;23.364;2023-03-01T05:38:31;14.10;;;7.30;;
5690;SDS011;2870;42.680;23.364;2023-03-01T05:40:58;8.23;;;6.27;;
5690;SDS011;2870;42.680;23.364;2023-03-01T05:43:25;7.73;;;5.73;;
5690;SDS011;2870;42.680;23.364;2023-03-01T05:45:54;7.30;;;6.03;;
5690;SDS011;2870;42.680;23.364;2023-03-01T05:48:25;6.77;;;5.63;;
5690;SDS011;2870;42.680;23.364;2023-03-01T05:50:53;7.70;;;6.50;;
5690;SDS011;2870;42.680;23.364;2023-03-01T05:53:20;7.67;;;5.93;;
5690;SDS011;2870;42.680;23.364;2023-03-01T05:55:47;8.50;;;5.83;;
5690;SDS011;2870;42.680;23.364;2023-03-01T05:58:15;10.63;;;6.40;;
5690;SDS011;2870;42.680;23.364;2023-03-01T06:00:44;8.97;;;6.33;;
5690;SDS011;2870;42.680;23.364;2023-03-01T06:03:13;6.50;;;5.53;;
5690;SDS011;2870;42.680;23.364;2023-03-01T06:05:41;7.60;;;6.77;;
5690;SDS011;2870;42.680;23.364;2023-03-01T06:08:10;8.20;;;5.43;;
5690;SDS011;2870;42.680;23.364;2023-03-01T06:10:38;7.10;;;5.67;;
5690;SDS011;2870;42.680;23.364;2023-03-01T06:13:05;14.60;;;5.73;;
5690;SDS011;2870;42.680;23.364;2023-03-01T06:15:32;7.03;;;5.43;;
5690;SDS011;2870;42.680;23.364;2023-03-01T06:17:59;9.10;;;5.97;;
5690;SDS011;2870;42.680;23.364;2023-03-01T06:20:26;6.70;;;6.00;;
5690;SDS011;2870;42.680;23.364;2023-03-01T06:22:54;9.93;;;8.17;;
5690;SDS011;2870;42.680;23.364;2023-03-01T06:25:23;9.40;;;6.97;;
5690;SDS011;2870;42.680;23.364;2023-03-01T06:27:51;8.50;;;6.80;;
5690;SDS011;2870;42.680;23.364;2023-03-01T06:30:19;10.50;;;6.80;;
5690;SDS011;2870;42.680;23.364;2023-03-01T06:32:48;8.70;;;7.10;;
5690;SDS011;2870;42.680;23.364;2023-03-01T06:35:15;8.80;;;7.07;;
5690;SDS011;2870;42.680;23.364;2023-03-01T06:37:43;6.10;;;5.40;;
5690;SDS011;2870;42.680;23.364;2023-03-01T06:40:11;6.70;;;6.00;;
5690;SDS011;2870;42.680;23.364;2023-03-01T06:42:42;6.13;;;5.40;;
5690;SDS011;2870;42.680;23.364;2023-03-01T06:45:10;6.93;;;6.10;;
5690;SDS011;2870;42.680;23.364;2023-03-01T06:47:37;6.20;;;5.60;;
5690;SDS011;2870;42.680;23.364;2023-03-01T06:50:04;5.77;;;5.17;;
5690;SDS011;2870;42.680;23.364;2023-03-01T06:52:31;6.90;;;5.20;;
5690;SDS011;2870;42.680;23.364;2023-03-01T06:54:58;7.93;;;5.90;;
5690;SDS011;2870;42.680;23.364;2023-03-01T06:57:25;7.43;;;6.00;;
5690;SDS011;2870;42.680;23.364;2023-03-01T06:59:53;6.83;;;6.13;;
5690;SDS011;2870;42.680;23.364;2023-03-01T07:02:20;7.13;;;6.30;;
5690;SDS011;2870;42.680;23.364;2023-03-01T07:04:48;7.03;;;6.00;;
5690;SDS011;2870;42.680;23.364;2023-03-01T07:07:15;8.10;;;5.43;;
5690;SDS011;2870;42.680;23.364;2023-03-01T07:09:43;7.50;;;5.77;;
5690;SDS011;2870;42.680;23.364;2023-03-01T07:12:10;8.60;;;4.90;;
5690;SDS011;2870;42.680;23.364;2023-03-01T07:14:37;6.60;;;5.57;;
5690;SDS011;2870;42.680;23.364;2023-03-01T07:17:05;7.80;;;5.40;;
5690;SDS011;2870;42.680;23.364;2023-03-01T07:19:32;5.60;;;4.60;;
5690;SDS011;2870;42.680;23.364;2023-03-01T07:21:58;6.00;;;5.23;;
5690;SDS011;2870;42.680;23.364;2023-03-01T07:24:25;7.10;;;4.90;;
5690;SDS011;2870;42.680;23.364;2023-03-01T07:26:52;6.20;;;5.30;;
5690;SDS011;2870;42.680;23.364;2023-03-01T07:29:19;6.67;;;5.70;;
5690;SDS011;2870;42.680;23.364;2023-03-01T07:31:46;6.00;;;5.03;;
5690;SDS011;2870;42.680;23.364;2023-03-01T07:34:14;6.80;;;5.47;;
5690;SDS011;2870;42.680;23.364;2023-03-01T07:36:41;6.23;;;5.00;;
5690;SDS011;2870;42.680;23.364;2023-03-01T07:39:08;10.10;;;6.00;;
5690;SDS011;2870;42.680;23.364;2023-03-01T07:41:36;8.30;;;5.63;;
5690;SDS011;2870;42.680;23.364;2023-03-01T07:44:02;6.27;;;5.23;;
5690;SDS011;2870;42.680;23.364;2023-03-01T07:46:29;7.13;;;5.50;;
5690;SDS011;2870;42.680;23.364;2023-03-01T07:48:57;7.90;;;5.17;;
5690;SDS011;2870;42.680;23.364;2023-03-01T07:51:25;6.23;;;5.10;;
5690;SDS011;2870;42.680;23.364;2023-03-01T07:53:52;5.80;;;4.70;;
5690;SDS011;2870;42.680;23.364;2023-03-01T07:56:19;7.17;;;4.60;;
5690;SDS011;2870;42.680;23.364;2023-03-01T07:58:47;6.27;;;4.97;;
5690;SDS011;2870;42.680;23.364;2023-03-01T08:01:14;7.03;;;4.90;;
5690;SDS011;2870;42.680;23.364;2023-03-01T08:03:43;9.63;;;5.30;;
5690;SDS011;2870;42.680;23.364;2023-03-01T08:06:10;6.90;;;4.90;;
5690;SDS011;2870;42.680;23.364;2023-03-01T08:08:40;6.13;;;4.93;;
5690;SDS011;2870;42.680;23.364;2023-03-01T08:11:09;13.93;;;5.60;;
5690;SDS011;2870;42.680;23.364;2023-03-01T08:13:37;5.57;;;4.60;;
5690;SDS011;2870;42.680;23.364;2023-03-01T08:16:05;6.87;;;5.23;;
5690;SDS011;2870;42.680;23.364;2023-03-01T08:18:33;5.97;;;4.70;;
5690;SDS011;2870;42.680;23.364;2023-03-01T08:21:01;4.97;;;4.47;;
5690;SDS011;2870;42.680;23.364;2023-03-01T08:23:29;6.73;;;4.80;;
5690;SDS011;2870;42.680;23.364;2023-03-01T08:26:04;6.73;;;5.50;;
5690;SDS011;2870;42.680;23.364;2023-03-01T08:28:32;5.00;;;4.10;;
5690;SDS011;2870;42.680;23.364;2023-03-01T08:30:59;5.00;;;4.47;;
5690;SDS011;2870;42.680;23.364;2023-03-01T08:33:26;8.30;;;5.13;;
5690;SDS011;2870;42.680;23.364;2023-03-01T08:36:01;5.33;;;4.83;;
5690;SDS011;2870;42.680;23.364;2023-03-01T08:38:29;6.70;;;4.97;;
5690;SDS011;2870;42.680;23.364;2023-03-01T08:40:58;5.47;;;4.77;;
5690;SDS011;2870;42.680;23.364;2023-03-01T08:43:27;8.30;;;5.43;;
5690;SDS011;2870;42.680;23.364;2023-03-01T08:45:55;5.60;;;5.00;;
5690;SDS011;2870;42.680;23.364;2023-03-01T08:48:21;7.20;;;5.53;;
5690;SDS011;2870;42.680;23.364;2023-03-01T08:50:48;5.77;;;5.10;;
5690;SDS011;2870;42.680;23.364;2023-03-01T08:53:15;7.80;;;5.83;;
5690;SDS011;2870;42.680;23.364;2023-03-01T08:55:42;6.80;;;5.53;;
5690;SDS011;2870;42.680;23.364;2023-03-01T08:58:08;5.77;;;4.87;;
5690;SDS011;2870;42.680;23.364;2023-03-01T09:00:36;6.13;;;5.53;;
5690;SDS011;2870;42.680;23.364;2023-03-01T09:03:03;6.17;;;4.90;;
5690;SDS011;2870;42.680;23.364;2023-03-01T09:05:31;6.43;;;4.70;;
5690;SDS011;2870;42.680;23.364;2023-03-01T09:07:58;5.53;;;5.03;;
5690;SDS011;2870;42.680;23.364;2023-03-01T09:10:25;6.77;;;4.87;;
5690;SDS011;2870;42.680;23.364;2023-03-01T09:12:52;6.10;;;4.93;;
5690;SDS011;2870;42.680;23.364;2023-03-01T09:15:19;5.53;;;4.90;;
5690;SDS011;2870;42.680;23.364;2023-03-01T09:17:47;5.27;;;4.37;;
5690;SDS011;2870;42.680;23.364;2023-03-01T09:20:14;6.90;;;4.80;;
5690;SDS011;2870;42.680;23.364;2023-03-01T09:22:40;5.07;;;4.53;;
5690;SDS011;2870;42.680;23.364;2023-03-01T09:25:07;6.40;;;4.47;;
5690;SDS011;2870;42.680;23.364;2023-03-01T09:27:34;8.03;;;4.67;;
5690;SDS011;2870;42.680;23.364;2023-03-01T09:30:01;5.47;;;4.37;;
5690;SDS011;2870;42.680;23.364;2023-03-01T09:32:29;7.50;;;4.60;;
5690;SDS011;2870;42.680;23.364;2023-03-01T09:34:57;8.80;;;4.53;;
5690;SDS011;2870;42.680;23.364;2023-03-01T09:37:29;8.03;;;5.20;;
5690;SDS011;2870;42.680;23.364;2023-03-01T09:39:57;6.17;;;5.17;;
5690;SDS011;2870;42.680;23.364;2023-03-01T09:42:24;5.77;;;4.80;;
5690;SDS011;2870;42.680;23.364;2023-03-01T09:44:52;5.93;;;4.47;;
5690;SDS011;2870;42.680;23.364;2023-03-01T09:47:26;5.10;;;4.27;;
5690;SDS011;2870;42.680;23.364;2023-03-01T09:50:00;5.03;;;4.03;;
5690;SDS011;2870;42.680;23.364;2023-03-01T09:52:34;4.43;;;4.03;;
5690;SDS011;2870;42.680;23.364;2023-03-01T09:55:08;4.80;;;4.10;;
5690;SDS011;2870;42.680;23.364;2023-03-01T09:57:38;4.90;;;4.13;;
5690;SDS011;2870;42.680;23.364;2023-03-01T10:00:17;6.90;;;4.63;;
5690;SDS011;2870;42.680;23.364;2023-03-01T10:02:57;4.60;;;4.10;;
5690;SDS011;2870;42.680;23.364;2023-03-01T10:05:33;4.70;;;4.03;;
5690;SDS011;2870;42.680;23.364;2023-03-01T10:08:24;4.23;;;3.83;;
5690;SDS011;2870;42.680;23.364;2023-03-01T10:10:56;6.23;;;4.20;;
5690;SDS011;2870;42.680;23.364;2023-03-01T10:13:25;6.70;;;4.13;;
5690;SDS011;2870;42.680;23.364;2023-03-01T10:16:01;9.80;;;4.80;;
5690;SDS011;2870;42.680;23.364;2023-03-01T10:18:35;6.37;;;4.07;;
5690;SDS011;2870;42.680;23.364;2023-03-01T10:21:09;5.77;;;4.30;;
5690;SDS011;2870;42.680;23.364;2023-03-01T10:23:41;10.63;;;4.73;;
5690;SDS011;2870;42.680;23.364;2023-03-01T10:26:12;5.70;;;3.73;;
5690;SDS011;2870;42.680;23.364;2023-03-01T10:28:50;5.57;;;4.40;;
5690;SDS011;2870;42.680;23.364;2023-03-01T10:31:23;4.63;;;3.77;;
5690;SDS011;2870;42.680;23.364;2023-03-01T10:33:54;4.73;;;4.20;;
5690;SDS011;2870;42.680;23.364;2023-03-01T10:36:23;5.73;;;4.47;;
5690;SDS011;2870;42.680;23.364;2023-03-01T10:38:51;4.10;;;3.57;;
5690;SDS011;2870;42.680;23.364;2023-03-01T10:41:19;13.83;;;5.33;;
5690;SDS011;2870;42.680;23.364;2023-03-01T10:43:49;5.23;;;4.40;;
5690;SDS011;2870;42.680;23.364;2023-03-01T10:46:23;5.23;;;4.30;;
5690;SDS011;2870;42.680;23.364;2023-03-01T10:51:43;5.43;;;4.00;;
5690;SDS011;2870;42.680;23.364;2023-03-01T10:54:18;5.57;;;4.10;;
5690;SDS011;2870;42.680;23.364;2023-03-01T10:56:47;6.57;;;4.30;;
5690;SDS011;2870;42.680;23.364;2023-03-01T10:59:25;5.10;;;4.20;;
5690;SDS011;2870;42.680;23.364;2023-03-01T11:02:15;4.17;;;3.60;;
5690;SDS011;2870;42.680;23.364;2023-03-01T11:04:56;5.00;;;4.30;;
5690;SDS011;2870;42.680;23.364;2023-03-01T11:07:28;4.77;;;3.77;;
5690;SDS011;2870;42.680;23.364;2023-03-01T11:09:55;13.40;;;4.33;;
5690;SDS011;2870;42.680;23.364;2023-03-01T11:12:22;6.43;;;4.13;;
5690;SDS011;2870;42.680;23.364;2023-03-01T11:14:51;6.20;;;4.10;;
5690;SDS011;2870;42.680;23.364;2023-03-01T11:17:21;5.20;;;4.00;;
5690;SDS011;2870;42.680;23.364;2023-03-01T11:20:00;6.40;;;3.90;;
5690;SDS011;2870;42.680;23.364;2023-03-01T11:22:30;5.07;;;4.20;;
5690;SDS011;2870;42.680;23.364;2023-03-01T11:24:59;4.63;;;4.10;;
5690;SDS011;2870;42.680;23.364;2023-03-01T11:27:27;7.07;;;4.93;;
5690;SDS011;2870;42.680;23.364;2023-03-01T11:29:58;5.57;;;4.40;;
5690;SDS011;2870;42.680;23.364;2023-03-01T11:32:31;4.70;;;3.87;;
5690;SDS011;2870;42.680;23.364;2023-03-01T11:35:03;5.30;;;4.10;;
5690;SDS011;2870;42.680;23.364;2023-03-01T11:37:40;4.50;;;4.10;;
5690;SDS011;2870;42.680;23.364;2023-03-01T11:40:12;6.10;;;4.47;;
5690;SDS011;2870;42.680;23.364;2023-03-01T11:42:45;5.70;;;4.30;;
5690;SDS011;2870;42.680;23.364;2023-03-01T11:45:16;5.83;;;4.47;;
5690;SDS011;2870;42.680;23.364;2023-03-01T11:47:50;6.03;;;4.50;;
5690;SDS011;2870;42.680;23.364;2023-03-01T11:50:34;8.33;;;4.67;;
5690;SDS011;2870;42.680;23.364;2023-03-01T11:56:09;5.60;;;4.57;;
5690;SDS011;2870;42.680;23.364;2023-03-01T11:58:49;6.50;;;4.83;;
5690;SDS011;2870;42.680;23.364;2023-03-01T12:01:35;5.70;;;4.67;;
5690;SDS011;2870;42.680;23.364;2023-03-01T12:07:17;8.73;;;4.60;;
5690;SDS011;2870;42.680;23.364;2023-03-01T12:09:56;16.93;;;4.57;;
5690;SDS011;2870;42.680;23.364;2023-03-01T12:12:35;6.60;;;5.30;;
5690;SDS011;2870;42.680;23.364;2023-03-01T12:15:26;13.53;;;8.70;;
5690;SDS011;2870;42.680;23.364;2023-03-01T12:18:20;8.93;;;5.30;;
5690;SDS011;2870;42.680;23.364;2023-03-01T12:21:03;6.63;;;5.80;;
5690;SDS011;2870;42.680;23.364;2023-03-01T12:26:44;6.93;;;5.37;;
5690;SDS011;2870;42.680;23.364;2023-03-01T12:29:22;7.00;;;5.40;;
5690;SDS011;2870;42.680;23.364;2023-03-01T12:32:00;7.27;;;5.17;;
5690;SDS011;2870;42.680;23.364;2023-03-01T12:34:38;8.90;;;5.40;;
5690;SDS011;2870;42.680;23.364;2023-03-01T12:37:33;11.53;;;6.37;;
5690;SDS011;2870;42.680;23.364;2023-03-01T12:40:24;8.00;;;5.60;;
5690;SDS011;2870;42.680;23.364;2023-03-01T12:43:05;7.13;;;5.43;;
5690;SDS011;2870;42.680;23.364;2023-03-01T12:48:36;6.20;;;5.27;;
5690;SDS011;2870;42.680;23.364;2023-03-01T12:51:10;8.63;;;5.30;;
5690;SDS011;2870;42.680;23.364;2023-03-01T12:53:41;6.23;;;4.20;;
5690;SDS011;2870;42.680;23.364;2023-03-01T12:56:13;6.53;;;5.00;;
5690;SDS011;2870;42.680;23.364;2023-03-01T12:58:46;10.20;;;5.80;;
5690;SDS011;2870;42.680;23.364;2023-03-01T13:01:26;6.53;;;5.00;;
5690;SDS011;2870;42.680;23.364;2023-03-01T13:04:12;7.13;;;4.93;;
5690;SDS011;2870;42.680;23.364;2023-03-01T13:06:44;6.40;;;4.70;;
5690;SDS011;2870;42.680;23.364;2023-03-01T13:09:23;6.80;;;5.03;;
5690;SDS011;2870;42.680;23.364;2023-03-01T13:11:55;7.10;;;5.30;;
5690;SDS011;2870;42.680;23.364;2023-03-01T13:14:37;8.27;;;5.70;;
5690;SDS011;2870;42.680;23.364;2023-03-01T13:17:31;8.60;;;5.60;;
5690;SDS011;2870;42.680;23.364;2023-03-01T13:20:00;5.80;;;4.77;;
5690;SDS011;2870;42.680;23.364;2023-03-01T13:22:29;7.53;;;4.77;;
5690;SDS011;2870;42.680;23.364;2023-03-01T13:25:11;5.27;;;4.40;;
5690;SDS011;2870;42.680;23.364;2023-03-01T13:27:41;5.03;;;4.53;;
5690;SDS011;2870;42.680;23.364;2023-03-01T13:33:32;7.77;;;5.10;;
5690;SDS011;2870;42.680;23.364;2023-03-01T13:36:10;7.73;;;5.10;;
5690;SDS011;2870;42.680;23.364;2023-03-01T13:38:59;5.97;;;4.67;;
5690;SDS011;2870;42.680;23.364;2023-03-01T13:44:19;5.90;;;4.50;;
5690;SDS011;2870;42.680;23.364;2023-03-01T13:46:53;7.70;;;5.00;;
5690;SDS011;2870;42.680;23.364;2023-03-01T13:49:23;6.87;;;5.30;;
5690;SDS011;2870;42.680;23.364;2023-03-01T13:51:54;5.30;;;4.47;;
5690;SDS011;2870;42.680;23.364;2023-03-01T13:54:23;7.67;;;5.23;;
5690;SDS011;2870;42.680;23.364;2023-03-01T13:56:54;6.40;;;4.00;;
5690;SDS011;2870;42.680;23.364;2023-03-01T13:59:22;6.40;;;5.00;;
5690;SDS011;2870;42.680;23.364;2023-03-01T14:01:56;9.83;;;4.63;;
5690;SDS011;2870;42.680;23.364;2023-03-01T14:04:26;5.67;;;4.90;;
5690;SDS011;2870;42.680;23.364;2023-03-01T14:07:08;5.13;;;4.33;;
5690;SDS011;2870;42.680;23.364;2023-03-01T14:09:37;6.70;;;4.87;;
5690;SDS011;2870;42.680;23.364;2023-03-01T14:12:12;7.17;;;5.00;;
5690;SDS011;2870;42.680;23.364;2023-03-01T14:14:59;7.70;;;4.60;;
5690;SDS011;2870;42.680;23.364;2023-03-01T14:17:38;11.40;;;5.13;;
5690;SDS011;2870;42.680;23.364;2023-03-01T14:20:12;6.50;;;4.40;;
5690;SDS011;2870;42.680;23.364;2023-03-01T14:22:43;5.30;;;4.73;;
5690;SDS011;2870;42.680;23.364;2023-03-01T14:25:22;8.47;;;5.20;;
5690;SDS011;2870;42.680;23.364;2023-03-01T14:27:52;10.20;;;7.03;;
5690;SDS011;2870;42.680;23.364;2023-03-01T14:30:23;7.50;;;4.33;;
5690;SDS011;2870;42.680;23.364;2023-03-01T14:32:55;7.60;;;5.00;;
5690;SDS011;2870;42.680;23.364;2023-03-01T14:35:23;9.73;;;5.50;;
5690;SDS011;2870;42.680;23.364;2023-03-01T14:37:52;7.07;;;5.43;;
5690;SDS011;2870;42.680;23.364;2023-03-01T14:40:23;10.43;;;4.80;;
5690;SDS011;2870;42.680;23.364;2023-03-01T14:42:52;8.53;;;5.40;;
5690;SDS011;2870;42.680;23.364;2023-03-01T14:45:20;5.50;;;4.00;;
5690;SDS011;2870;42.680;23.364;2023-03-01T14:47:47;7.17;;;4.93;;
5690;SDS011;2870;42.680;23.364;2023-03-01T14:50:18;6.40;;;4.80;;
5690;SDS011;2870;42.680;23.364;2023-03-01T14:52:48;10.97;;;5.03;;
5690;SDS011;2870;42.680;23.364;2023-03-01T14:55:18;7.20;;;5.50;;
5690;SDS011;2870;42.680;23.364;2023-03-01T14:57:47;7.40;;;4.90;;
5690;SDS011;2870;42.680;23.364;2023-03-01T15:00:16;9.83;;;5.20;;
5690;SDS011;2870;42.680;23.364;2023-03-01T15:02:47;10.70;;;5.00;;
5690;SDS011;2870;42.680;23.364;2023-03-01T15:05:15;18.57;;;4.67;;
5690;SDS011;2870;42.680;23.364;2023-03-01T15:07:45;7.83;;;5.20;;
5690;SDS011;2870;42.680;23.364;2023-03-01T15:10:16;5.10;;;4.37;;
5690;SDS011;2870;42.680;23.364;2023-03-01T15:12:47;5.00;;;4.00;;
5690;SDS011;2870;42.680;23.364;2023-03-01T15:15:21;10.93;;;5.63;;
5690;SDS011;2870;42.680;23.364;2023-03-01T15:17:56;6.97;;;4.70;;
5690;SDS011;2870;42.680;23.364;2023-03-01T15:20:27;7.80;;;5.00;;
5690;SDS011;2870;42.680;23.364;2023-03-01T15:22:55;9.60;;;5.20;;
5690;SDS011;2870;42.680;23.364;2023-03-01T15:25:24;5.93;;;4.37;;
5690;SDS011;2870;42.680;23.364;2023-03-01T15:27:53;6.83;;;4.83;;
5690;SDS011;2870;42.680;23.364;2023-03-01T15:30:23;13.80;;;4.90;;
5690;SDS011;2870;42.680;23.364;2023-03-01T15:36:01;6.60;;;5.17;;
5690;SDS011;2870;42.680;23.364;2023-03-01T15:38:31;14.27;;;4.60;;
5690;SDS011;2870;42.680;23.364;2023-03-01T15:41:04;7.20;;;5.27;;
5690;SDS011;2870;42.680;23.364;2023-03-01T15:43:39;6.30;;;5.33;;
5690;SDS011;2870;42.680;23.364;2023-03-01T15:46:14;7.33;;;5.60;;